createdAt,value
2023-04-24T00:01:08.844Z,949.54
2023-04-24T00:03:35.179Z,949.52
2023-04-24T00:06:01.500Z,949.50
2023-04-24T00:08:27.913Z,949.44
2023-04-24T00:10:54.353Z,949.40
2023-04-24T00:13:21.137Z,949.34
2023-04-24T00:15:47.491Z,949.32
2023-04-24T00:18:13.940Z,949.32
2023-04-24T00:20:40.389Z,949.37
2023-04-24T00:23:06.909Z,949.34
2023-04-24T00:25:33.317Z,949.33
2023-04-24T00:27:59.742Z,949.27
2023-04-24T00:30:26.160Z,949.26
2023-04-24T00:32:52.660Z,949.18
2023-04-24T00:35:19.032Z,949.23
2023-04-24T00:37:45.488Z,949.28
2023-04-24T00:40:11.946Z,949.28
2023-04-24T00:42:38.310Z,949.23
2023-04-24T00:45:04.766Z,949.25
2023-04-24T00:47:31.180Z,949.25
2023-04-24T00:49:57.562Z,949.26
2023-04-24T00:52:23.981Z,949.30
2023-04-24T00:54:50.446Z,949.29
2023-04-24T00:57:16.818Z,949.20
2023-04-24T00:59:43.609Z,949.19
2023-04-24T01:02:09.716Z,949.18
2023-04-24T01:04:36.227Z,949.20
2023-04-24T01:07:02.557Z,949.28
2023-04-24T01:09:28.972Z,949.18
2023-04-24T01:11:55.391Z,949.23
2023-04-24T01:14:23.830Z,949.28
2023-04-24T01:16:48.173Z,949.24
2023-04-24T01:19:14.659Z,949.16
2023-04-24T01:21:41.091Z,949.04
2023-04-24T01:24:07.515Z,949.04
2023-04-24T01:26:33.872Z,949.02
2023-04-24T01:29:00.245Z,949.00
2023-04-24T01:31:26.765Z,948.94
2023-04-24T01:33:53.166Z,948.93
2023-04-24T01:36:19.630Z,948.90
2023-04-24T01:38:46.088Z,948.86
2023-04-24T01:41:12.471Z,948.96
2023-04-24T01:43:38.886Z,948.90
2023-04-24T01:46:05.347Z,948.88
2023-04-24T01:48:31.799Z,948.88
2023-04-24T01:50:58.223Z,948.81
2023-04-24T01:53:25.003Z,948.82
2023-04-24T01:55:51.340Z,948.85
2023-04-24T01:58:17.824Z,948.81
2023-04-24T02:00:44.290Z,948.80
2023-04-24T02:03:10.839Z,948.76
2023-04-24T02:05:37.083Z,948.85
2023-04-24T02:08:03.512Z,948.78
2023-04-24T02:10:29.997Z,948.83
2023-04-24T02:12:58.810Z,948.81
2023-04-24T02:15:25.362Z,948.79
2023-04-24T02:17:51.788Z,948.70
2023-04-24T02:20:18.180Z,948.73
2023-04-24T02:22:44.683Z,948.80
2023-04-24T02:25:11.088Z,948.78
2023-04-24T02:27:37.622Z,948.74
2023-04-24T02:30:04.794Z,948.76
2023-04-24T02:32:31.263Z,948.77
2023-04-24T02:34:57.671Z,948.78
2023-04-24T02:37:24.077Z,948.67
2023-04-24T02:39:50.550Z,948.68
2023-04-24T02:42:17.021Z,948.61
2023-04-24T02:44:43.431Z,948.61
2023-04-24T02:47:09.855Z,948.60
2023-04-24T02:49:36.565Z,948.48
2023-04-24T02:52:02.901Z,948.54
2023-04-24T02:54:29.412Z,948.50
2023-04-24T02:56:55.931Z,948.54
2023-04-24T02:59:22.333Z,948.56
2023-04-24T03:01:48.852Z,948.51
2023-04-24T03:04:15.435Z,948.54
2023-04-24T03:06:41.658Z,948.57
2023-04-24T03:09:08.204Z,948.56
2023-04-24T03:11:34.543Z,948.62
2023-04-24T03:14:01.116Z,948.60
2023-04-24T03:16:27.639Z,948.67
2023-04-24T03:18:53.941Z,948.60
2023-04-24T03:21:20.471Z,948.64
2023-04-24T03:23:46.932Z,948.58
2023-04-24T03:26:13.362Z,948.62
2023-04-24T03:28:39.862Z,948.61
2023-04-24T03:31:06.339Z,948.63
2023-04-24T03:33:32.679Z,948.62
2023-04-24T03:35:59.163Z,948.67
2023-04-24T03:38:25.614Z,948.65
2023-04-24T03:40:52.081Z,948.67
2023-04-24T03:43:18.519Z,948.64
2023-04-24T03:45:45.005Z,948.68
2023-04-24T03:48:11.453Z,948.64
2023-04-24T03:50:38.017Z,948.63
2023-04-24T03:53:04.460Z,948.67
2023-04-24T03:55:30.977Z,948.70
2023-04-24T03:57:57.536Z,948.65
2023-04-24T04:00:23.991Z,948.65
2023-04-24T04:02:50.593Z,948.64
2023-04-24T04:05:16.990Z,948.74
2023-04-24T04:07:43.338Z,948.68
2023-04-24T04:10:09.765Z,948.68
2023-04-24T04:12:36.241Z,948.74
2023-04-24T04:15:02.740Z,948.70
2023-04-24T04:17:29.217Z,948.69
2023-04-24T04:19:55.647Z,948.68
2023-04-24T04:22:23.250Z,948.68
2023-04-24T04:24:49.677Z,948.72
2023-04-24T04:27:16.133Z,948.75
2023-04-24T04:29:42.912Z,948.80
2023-04-24T04:32:09.279Z,948.74
2023-04-24T04:34:35.598Z,948.79
2023-04-24T04:37:02.037Z,948.85
2023-04-24T04:39:28.563Z,948.86
2023-04-24T04:41:55.070Z,948.87
2023-04-24T04:44:21.530Z,948.96
2023-04-24T04:46:48.106Z,948.92
2023-04-24T04:49:14.531Z,948.98
2023-04-24T04:51:42.863Z,949.01
2023-04-24T04:54:07.508Z,949.01
2023-04-24T04:56:34.005Z,949.04
2023-04-24T04:59:00.569Z,949.03
2023-04-24T05:01:27.139Z,949.01
2023-04-24T05:03:53.997Z,949.01
2023-04-24T05:06:21.295Z,949.07
2023-04-24T05:08:46.864Z,949.09
2023-04-24T05:11:13.282Z,949.05
2023-04-24T05:13:41.156Z,949.09
2023-04-24T05:16:06.434Z,949.13
2023-04-24T05:18:32.911Z,949.01
2023-04-24T05:20:59.326Z,948.99
2023-04-24T05:23:25.839Z,949.01
2023-04-24T05:25:52.246Z,949.03
2023-04-24T05:28:18.681Z,948.98
2023-04-24T05:30:45.193Z,949.01
2023-04-24T05:33:11.645Z,948.99
2023-04-24T05:35:38.141Z,948.99
2023-04-24T05:38:04.538Z,949.00
2023-04-24T05:40:31.018Z,948.99
2023-04-24T05:42:59.500Z,949.00
2023-04-24T05:45:23.825Z,949.05
2023-04-24T05:47:50.368Z,949.06
2023-04-24T05:50:16.824Z,949.04
2023-04-24T05:52:43.941Z,949.06
2023-04-24T05:55:10.488Z,949.08
2023-04-24T05:57:36.960Z,949.11
2023-04-24T06:00:03.372Z,949.01
2023-04-24T06:02:30.062Z,949.04
2023-04-24T06:04:56.381Z,949.02
2023-04-24T06:07:22.713Z,949.08
2023-04-24T06:09:49.093Z,949.06
2023-04-24T06:12:15.707Z,949.07
2023-04-24T06:14:42.146Z,949.06
2023-04-24T06:17:08.597Z,949.01
2023-04-24T06:19:34.956Z,949.07
2023-04-24T06:22:01.459Z,949.04
2023-04-24T06:24:30.523Z,949.10
2023-04-24T06:26:54.332Z,949.02
2023-04-24T06:29:20.863Z,949.07
2023-04-24T06:31:47.343Z,949.06
2023-04-24T06:34:13.702Z,949.09
2023-04-24T06:36:40.160Z,949.11
2023-04-24T06:39:06.609Z,949.11
2023-04-24T06:41:32.990Z,949.13
2023-04-24T06:43:59.604Z,949.17
2023-04-24T06:46:26.107Z,949.12
2023-04-24T06:48:52.512Z,949.15
2023-04-24T06:51:18.869Z,949.04
2023-04-24T06:53:46.047Z,949.09
2023-04-24T06:56:11.700Z,948.99
2023-04-24T06:58:38.133Z,949.02
2023-04-24T07:01:04.567Z,948.94
2023-04-24T07:03:31.009Z,948.91
2023-04-24T07:05:57.467Z,948.94
2023-04-24T07:08:23.873Z,948.96
2023-04-24T07:10:50.266Z,948.92
2023-04-24T07:13:16.715Z,948.92
2023-04-24T07:15:43.345Z,948.90
2023-04-24T07:18:10.259Z,948.87
2023-04-24T07:20:36.635Z,948.86
2023-04-24T07:23:03.110Z,948.84
2023-04-24T07:25:29.678Z,948.89
2023-04-24T07:27:56.010Z,948.85
2023-04-24T07:30:22.409Z,948.85
2023-04-24T07:32:48.856Z,948.83
2023-04-24T07:35:15.493Z,948.77
2023-04-24T07:37:41.886Z,948.77
2023-04-24T07:40:08.306Z,948.72
2023-04-24T07:42:34.788Z,948.73
2023-04-24T07:45:02.244Z,948.75
2023-04-24T07:47:28.777Z,948.70
2023-04-24T07:49:55.118Z,948.70
2023-04-24T07:52:21.513Z,948.62
2023-04-24T07:54:47.943Z,948.68
2023-04-24T07:57:14.346Z,948.60
2023-04-24T07:59:40.949Z,948.58
2023-04-24T08:02:07.336Z,948.61
2023-04-24T08:04:33.808Z,948.60
2023-04-24T08:07:00.122Z,948.54
2023-04-24T08:09:27.621Z,948.62
2023-04-24T08:11:52.992Z,948.56
2023-04-24T08:14:19.382Z,948.55
2023-04-24T08:16:45.759Z,948.55
2023-04-24T08:19:12.195Z,948.49
2023-04-24T08:21:38.643Z,948.46
2023-04-24T08:24:05.106Z,948.44
2023-04-24T08:26:31.509Z,948.40
2023-04-24T08:28:58.080Z,948.40
2023-04-24T08:31:24.472Z,948.35
2023-04-24T08:33:50.804Z,948.38
2023-04-24T08:36:17.226Z,948.32
2023-04-24T08:38:43.672Z,948.35
2023-04-24T08:41:10.012Z,948.31
2023-04-24T08:43:36.438Z,948.34
2023-04-24T08:46:05.550Z,948.26
2023-04-24T08:48:31.590Z,948.24
2023-04-24T08:50:55.687Z,948.17
2023-04-24T08:53:22.174Z,948.18
2023-04-24T08:55:48.545Z,948.14
2023-04-24T08:58:14.922Z,948.08
2023-04-24T09:00:41.504Z,948.05
2023-04-24T09:03:08.448Z,948.04
2023-04-24T09:05:34.701Z,948.03
2023-04-24T09:08:01.164Z,948.00
2023-04-24T09:10:27.631Z,947.97
2023-04-24T09:12:56.406Z,947.94
2023-04-24T09:15:22.772Z,947.87
2023-04-24T09:17:49.261Z,947.94
2023-04-24T09:20:15.703Z,947.87
2023-04-24T09:22:42.097Z,947.82
2023-04-24T09:25:08.518Z,947.80
2023-04-24T09:27:34.895Z,947.74
2023-04-24T09:30:01.447Z,947.67
2023-04-24T09:32:27.861Z,947.64
2023-04-24T09:34:54.590Z,947.60
2023-04-24T09:37:20.987Z,947.62
2023-04-24T09:39:47.398Z,947.52
2023-04-24T09:42:13.777Z,947.50
2023-04-24T09:44:40.172Z,947.52
2023-04-24T09:47:06.598Z,947.46
2023-04-24T09:49:33.037Z,947.48
2023-04-24T09:51:59.498Z,947.47
2023-04-24T09:54:25.887Z,947.53
2023-04-24T09:56:52.266Z,947.38
2023-04-24T09:59:19.738Z,947.42
2023-04-24T10:01:46.224Z,947.37
2023-04-24T10:04:12.606Z,947.31
2023-04-24T10:06:39.023Z,947.37
2023-04-24T10:09:05.512Z,947.28
2023-04-24T10:11:31.989Z,947.17
2023-04-24T10:13:58.835Z,947.14
2023-04-24T10:16:25.424Z,947.11
2023-04-24T10:18:51.604Z,946.98
2023-04-24T10:21:18.002Z,947.01
2023-04-24T10:23:44.368Z,946.98
2023-04-24T10:26:10.773Z,946.96
2023-04-24T10:28:37.231Z,946.95
2023-04-24T10:31:03.770Z,946.97
2023-04-24T10:33:30.072Z,946.92
2023-04-24T10:35:56.508Z,946.90
2023-04-24T10:38:22.964Z,946.84
2023-04-24T10:40:49.338Z,946.76
2023-04-24T10:43:15.738Z,946.75
2023-04-24T10:45:42.248Z,946.78
2023-04-24T10:48:08.697Z,946.76
2023-04-24T10:50:37.151Z,946.74
2023-04-24T10:53:03.607Z,946.71
2023-04-24T10:55:29.980Z,946.64
2023-04-24T10:57:56.369Z,946.65
2023-04-24T11:00:22.806Z,946.57
2023-04-24T11:02:51.729Z,946.50
2023-04-24T11:05:17.734Z,946.52
2023-04-24T11:07:44.227Z,946.51
2023-04-24T11:10:10.647Z,946.51
2023-04-24T11:12:37.072Z,946.51
2023-04-24T11:15:03.797Z,946.42
2023-04-24T11:17:29.919Z,946.39
2023-04-24T11:19:56.353Z,946.41
2023-04-24T11:22:22.668Z,946.41
2023-04-24T11:24:49.088Z,946.51
2023-04-24T11:27:15.575Z,946.62
2023-04-24T11:29:41.951Z,946.87
2023-04-24T11:32:08.414Z,946.91
2023-04-24T11:34:34.805Z,946.95
2023-04-24T11:37:01.225Z,946.96
2023-04-24T11:39:27.641Z,946.89
2023-04-24T11:41:54.065Z,946.78
2023-04-24T11:44:20.469Z,946.88
2023-04-24T11:46:46.879Z,946.83
2023-04-24T11:49:13.268Z,946.76
2023-04-24T11:51:52.296Z,946.70
2023-04-24T11:54:06.169Z,946.73
2023-04-24T11:56:32.566Z,946.63
2023-04-24T11:58:58.958Z,946.56
2023-04-24T12:01:25.378Z,946.54
2023-04-24T12:03:52.144Z,946.63
2023-04-24T12:06:18.376Z,946.54
2023-04-24T12:08:44.617Z,946.51
2023-04-24T12:11:11.079Z,946.44
2023-04-24T12:13:37.503Z,946.49
2023-04-24T12:16:03.861Z,946.39
2023-04-24T12:18:30.294Z,946.33
2023-04-24T12:21:01.339Z,946.30
2023-04-24T12:23:23.078Z,946.32
2023-04-24T12:25:49.512Z,946.38
2023-04-24T12:28:16.030Z,946.30
2023-04-24T12:30:42.440Z,946.31
2023-04-24T12:33:08.883Z,946.12
2023-04-24T12:35:36.427Z,946.11
2023-04-24T12:38:02.838Z,946.02
2023-04-24T12:40:29.245Z,945.97
2023-04-24T12:42:56.834Z,945.91
2023-04-24T12:45:22.135Z,945.91
2023-04-24T12:47:48.528Z,945.92
2023-04-24T12:50:14.918Z,945.76
2023-04-24T12:52:41.344Z,945.78
2023-04-24T12:55:07.706Z,945.71
2023-04-24T12:57:34.080Z,945.79
2023-04-24T13:00:00.461Z,945.61
2023-04-24T13:02:26.987Z,945.62
2023-04-24T13:04:53.315Z,945.46
2023-04-24T13:07:19.745Z,945.38
2023-04-24T13:09:46.153Z,945.38
2023-04-24T13:12:12.595Z,945.30
2023-04-24T13:14:38.970Z,945.32
2023-04-24T13:17:05.391Z,945.29
2023-04-24T13:19:31.877Z,945.27
2023-04-24T13:21:58.231Z,945.26
2023-04-24T13:24:26.815Z,945.27
2023-04-24T13:26:53.246Z,945.28
2023-04-24T13:29:19.746Z,945.31
2023-04-24T13:31:46.270Z,945.11
2023-04-24T13:34:12.589Z,945.23
2023-04-24T13:36:39.053Z,945.06
2023-04-24T13:39:05.471Z,945.13
2023-04-24T13:41:31.874Z,945.05
2023-04-24T13:43:58.314Z,944.98
2023-04-24T13:46:24.793Z,944.90
2023-04-24T13:48:51.118Z,944.84
2023-04-24T13:51:17.548Z,944.85
2023-04-24T13:53:44.203Z,944.80
2023-04-24T13:56:10.410Z,944.72
2023-04-24T13:58:36.783Z,944.74
2023-04-24T14:01:03.274Z,944.68
2023-04-24T14:03:29.833Z,944.58
2023-04-24T14:05:56.292Z,944.63
2023-04-24T14:08:22.659Z,944.56
2023-04-24T14:10:49.040Z,944.65
2023-04-24T14:13:15.661Z,944.51
2023-04-24T14:15:42.161Z,944.48
2023-04-24T14:18:08.560Z,944.47
2023-04-24T14:20:35.033Z,944.49
2023-04-24T14:23:01.492Z,944.39
2023-04-24T14:25:27.872Z,944.56
2023-04-24T14:27:54.361Z,944.53
2023-04-24T14:30:20.786Z,944.57
2023-04-24T14:32:47.242Z,944.60
2023-04-24T14:35:13.576Z,944.57
2023-04-24T14:37:39.962Z,944.54
2023-04-24T14:40:21.230Z,944.55
2023-04-24T14:42:32.784Z,944.48
2023-04-24T14:44:59.223Z,944.38
2023-04-24T14:47:25.628Z,944.42
2023-04-24T14:49:52.114Z,944.52
2023-04-24T14:52:18.477Z,944.35
2023-04-24T14:54:47.150Z,944.41
2023-04-24T14:57:15.896Z,944.42
2023-04-24T14:59:39.969Z,944.37
2023-04-24T15:02:15.958Z,944.41
2023-04-24T15:04:33.013Z,944.59
2023-04-24T15:06:59.268Z,944.34
2023-04-24T15:09:25.700Z,944.36
2023-04-24T15:11:52.127Z,944.43
2023-04-24T15:14:18.537Z,944.31
2023-04-24T15:16:45.000Z,944.32
2023-04-24T15:19:11.468Z,944.44
2023-04-24T15:21:37.883Z,944.32
2023-04-24T15:24:04.295Z,944.45
2023-04-24T15:26:30.883Z,944.46
2023-04-24T15:28:57.305Z,944.38
2023-04-24T15:31:23.758Z,944.26
2023-04-24T15:33:50.315Z,944.34
2023-04-24T15:36:16.634Z,944.28
2023-04-24T15:38:42.998Z,944.17
2023-04-24T15:41:09.486Z,944.21
2023-04-24T15:43:35.932Z,944.19
2023-04-24T15:46:02.381Z,944.31
2023-04-24T15:48:28.738Z,944.40
2023-04-24T15:50:55.155Z,944.27
2023-04-24T15:53:21.716Z,944.21
2023-04-24T15:55:48.098Z,944.16
2023-04-24T15:58:14.588Z,944.21
2023-04-24T16:00:40.975Z,944.16
2023-04-24T16:03:09.952Z,944.17
2023-04-24T16:05:33.895Z,944.16
2023-04-24T16:08:00.496Z,944.22
2023-04-24T16:10:27.195Z,944.35
2023-04-24T16:12:53.553Z,944.53
2023-04-24T16:15:19.982Z,944.71
2023-04-24T16:17:46.496Z,944.87
2023-04-24T16:20:12.831Z,944.90
2023-04-24T16:22:39.413Z,944.97
2023-04-24T16:25:06.276Z,944.94
2023-04-24T16:27:32.632Z,945.02
2023-04-24T16:29:59.129Z,945.11
2023-04-24T16:32:25.649Z,945.12
2023-04-24T16:34:52.152Z,945.17
2023-04-24T16:37:18.564Z,945.20
2023-04-24T16:39:44.945Z,945.30
2023-04-24T16:42:11.638Z,945.43
2023-04-24T16:44:38.072Z,945.44
2023-04-24T16:47:04.557Z,945.52
2023-04-24T16:49:31.167Z,945.51
2023-04-24T16:51:57.765Z,945.58
2023-04-24T16:54:24.205Z,945.66
2023-04-24T16:56:53.282Z,945.62
2023-04-24T16:59:17.286Z,945.54
2023-04-24T17:01:43.482Z,945.50
2023-04-24T17:04:10.927Z,945.38
2023-04-24T17:06:37.234Z,945.43
2023-04-24T17:09:03.868Z,945.42
2023-04-24T17:11:31.191Z,945.58
2023-04-24T17:13:56.815Z,945.69
2023-04-24T17:16:25.427Z,945.68
2023-04-24T17:18:51.918Z,945.67
2023-04-24T17:21:18.416Z,945.67
2023-04-24T17:23:45.392Z,945.56
2023-04-24T17:26:11.819Z,945.48
2023-04-24T17:28:38.332Z,945.36
2023-04-24T17:31:04.660Z,945.39
2023-04-24T17:33:31.088Z,945.37
2023-04-24T17:35:57.588Z,945.49
2023-04-24T17:38:23.960Z,945.60
2023-04-24T17:40:50.479Z,945.57
2023-04-24T17:43:16.937Z,945.67
2023-04-24T17:45:44.619Z,945.74
2023-04-24T17:48:11.110Z,945.81
2023-04-24T17:50:37.574Z,945.81
2023-04-24T17:53:03.927Z,945.90
2023-04-24T17:55:30.629Z,945.95
2023-04-24T17:57:57.160Z,946.04
2023-04-24T18:00:23.784Z,946.06
2023-04-24T18:02:50.474Z,946.16
2023-04-24T18:05:17.179Z,946.17
2023-04-24T18:07:43.596Z,946.18
2023-04-24T18:10:10.323Z,946.32
2023-04-24T18:12:36.687Z,946.37
2023-04-24T18:15:13.711Z,946.45
2023-04-24T18:17:29.536Z,946.45
2023-04-24T18:19:55.998Z,946.50
2023-04-24T18:22:22.645Z,946.51
2023-04-24T18:24:49.164Z,946.48
2023-04-24T18:27:15.590Z,946.51
2023-04-24T18:29:42.237Z,946.47
2023-04-24T18:32:08.649Z,946.24
2023-04-24T18:34:35.050Z,946.01
2023-04-24T18:37:01.503Z,945.92
2023-04-24T18:39:27.922Z,945.85
2023-04-24T18:41:54.297Z,945.78
2023-04-24T18:44:20.788Z,945.80
2023-04-24T18:46:47.289Z,945.96
2023-04-24T18:49:13.781Z,946.24
2023-04-24T18:51:52.577Z,946.36
2023-04-24T18:54:06.688Z,946.45
2023-04-24T18:56:33.300Z,946.39
2023-04-24T18:58:59.723Z,946.46
2023-04-24T19:01:26.251Z,946.40
2023-04-24T19:03:52.768Z,946.29
2023-04-24T19:06:20.131Z,946.37
2023-04-24T19:08:46.932Z,946.31
2023-04-24T19:11:13.043Z,946.22
2023-04-24T19:13:39.498Z,946.37
2023-04-24T19:16:06.082Z,946.51
2023-04-24T19:18:32.411Z,946.59
2023-04-24T19:20:58.809Z,946.50
2023-04-24T19:23:25.264Z,946.45
2023-04-24T19:25:51.765Z,946.36
2023-04-24T19:28:18.096Z,946.23
2023-04-24T19:30:44.615Z,946.26
2023-04-24T19:33:11.049Z,946.27
2023-04-24T19:35:37.502Z,946.06
2023-04-24T19:38:03.937Z,945.96
2023-04-24T19:40:30.526Z,946.02
2023-04-24T19:42:56.984Z,946.10
2023-04-24T19:45:23.449Z,946.03
2023-04-24T19:47:49.856Z,945.86
2023-04-24T19:50:16.716Z,945.96
2023-04-24T19:52:43.515Z,946.05
2023-04-24T19:55:09.919Z,945.95
2023-04-24T19:57:36.404Z,945.88
2023-04-24T20:00:02.817Z,945.75
2023-04-24T20:02:29.473Z,945.69
2023-04-24T20:04:55.930Z,945.77
2023-04-24T20:07:22.170Z,945.75
2023-04-24T20:09:48.641Z,945.75
2023-04-24T20:12:15.013Z,945.80
2023-04-24T20:14:41.404Z,945.79
2023-04-24T20:17:07.941Z,945.68
2023-04-24T20:19:34.388Z,945.67
2023-04-24T20:22:00.710Z,945.62
2023-04-24T20:24:27.114Z,945.57
2023-04-24T20:26:53.531Z,945.54
2023-04-24T20:29:20.125Z,945.41
2023-04-24T20:31:46.630Z,945.26
2023-04-24T20:34:12.958Z,945.21
2023-04-24T20:36:39.315Z,945.05
2023-04-24T20:39:05.975Z,944.89
2023-04-24T20:41:32.399Z,944.84
2023-04-24T20:43:58.884Z,944.81
2023-04-24T20:46:25.423Z,944.93
2023-04-24T20:48:51.806Z,945.06
2023-04-24T20:51:18.117Z,945.10
2023-04-24T20:53:44.511Z,945.20
2023-04-24T20:56:10.919Z,945.24
2023-04-24T20:58:37.321Z,945.25
2023-04-24T21:01:03.783Z,945.27
2023-04-24T21:03:30.413Z,945.36
2023-04-24T21:05:56.795Z,945.56
2023-04-24T21:08:23.213Z,945.78
2023-04-24T21:10:49.641Z,945.78
2023-04-24T21:13:16.076Z,945.82
2023-04-24T21:15:42.520Z,945.82
2023-04-24T21:18:09.039Z,945.68
2023-04-24T21:20:35.414Z,945.52
2023-04-24T21:23:01.785Z,945.33
2023-04-24T21:25:28.255Z,945.32
2023-04-24T21:27:54.599Z,945.33
2023-04-24T21:30:20.988Z,945.42
2023-04-24T21:32:47.428Z,945.41
2023-04-24T21:35:13.830Z,945.37
2023-04-24T21:37:40.279Z,945.35
2023-04-24T21:40:06.669Z,945.18
2023-04-24T21:42:33.081Z,945.02
2023-04-24T21:44:59.484Z,945.01
2023-04-24T21:47:26.167Z,944.99
2023-04-24T21:49:52.625Z,945.01
2023-04-24T21:52:19.097Z,945.00
2023-04-24T21:54:45.459Z,944.97
2023-04-24T21:57:11.825Z,945.03
2023-04-24T21:59:38.244Z,944.99
2023-04-24T22:02:04.664Z,945.04
2023-04-24T22:04:31.123Z,945.04
2023-04-24T22:06:57.446Z,944.97
2023-04-24T22:09:23.969Z,944.98
2023-04-24T22:11:50.379Z,944.98
2023-04-24T22:14:16.814Z,944.98
2023-04-24T22:16:43.331Z,944.93
2023-04-24T22:19:09.665Z,944.86
2023-04-24T22:21:36.098Z,944.90
2023-04-24T22:24:02.536Z,944.85
2023-04-24T22:26:29.244Z,944.83
2023-04-24T22:28:55.668Z,944.84
2023-04-24T22:31:22.031Z,944.79
2023-04-24T22:33:48.681Z,944.91
2023-04-24T22:36:15.282Z,944.83
2023-04-24T22:38:41.646Z,944.71
2023-04-24T22:41:08.108Z,944.77
2023-04-24T22:43:34.546Z,944.82
2023-04-24T22:46:00.889Z,944.78
2023-04-24T22:48:27.349Z,944.75
2023-04-24T22:50:53.820Z,944.83
2023-04-24T22:53:20.180Z,944.67
2023-04-24T22:55:46.578Z,944.74
2023-04-24T22:58:13.036Z,944.78
2023-04-24T23:00:39.501Z,944.77
2023-04-24T23:03:05.961Z,944.83
2023-04-24T23:05:32.294Z,944.93
2023-04-24T23:07:58.783Z,945.14
2023-04-24T23:10:25.173Z,945.35
2023-04-24T23:12:51.743Z,945.41
2023-04-24T23:15:18.212Z,945.36
2023-04-24T23:17:44.718Z,945.19
2023-04-24T23:20:12.104Z,945.09
2023-04-24T23:22:38.617Z,945.05
2023-04-24T23:25:05.067Z,945.01
2023-04-24T23:27:31.460Z,944.97
2023-04-24T23:29:57.965Z,945.05
2023-04-24T23:32:24.434Z,945.04
2023-04-24T23:34:50.890Z,945.05
2023-04-24T23:37:18.923Z,945.10
2023-04-24T23:39:43.723Z,945.06
2023-04-24T23:42:10.106Z,945.02
2023-04-24T23:44:36.575Z,944.97
2023-04-24T23:47:02.989Z,944.94
2023-04-24T23:49:29.428Z,944.85
2023-04-24T23:51:55.879Z,944.83
2023-04-24T23:54:22.335Z,944.76
2023-04-24T23:56:48.715Z,944.67
2023-04-24T23:59:15.175Z,944.63
